createdAt,value
2024-02-16T00:01:22.114Z,0.90
2024-02-16T00:04:23.855Z,0.57
2024-02-16T00:07:25.806Z,0.90
2024-02-16T00:10:28.996Z,0.70
2024-02-16T00:13:30.717Z,1.00
2024-02-16T00:16:32.494Z,1.13
2024-02-16T00:19:34.362Z,0.68
2024-02-16T00:22:36.177Z,0.68
2024-02-16T00:25:40.721Z,1.10
2024-02-16T00:28:43.104Z,1.00
2024-02-16T00:31:45.362Z,0.88
2024-02-16T00:34:47.426Z,0.65
2024-02-16T00:37:49.281Z,0.70
2024-02-16T00:40:52.295Z,0.90
2024-02-16T00:43:54.073Z,0.73
2024-02-16T00:46:55.790Z,0.68
2024-02-16T00:49:58.375Z,0.63
2024-02-16T00:53:01.257Z,0.60
2024-02-16T00:56:04.904Z,0.60
2024-02-16T00:59:06.644Z,0.80
2024-02-16T01:02:08.344Z,0.60
2024-02-16T01:05:11.563Z,0.80
2024-02-16T01:08:13.432Z,0.50
2024-02-16T01:11:16.473Z,0.60
2024-02-16T01:14:18.296Z,0.63
2024-02-16T01:17:20.014Z,0.50
2024-02-16T01:20:21.811Z,0.50
2024-02-16T01:23:23.524Z,0.57
2024-02-16T01:26:26.530Z,0.52
2024-02-16T01:29:28.180Z,0.50
2024-02-16T01:32:30.107Z,0.47
2024-02-16T01:35:31.822Z,0.57
2024-02-16T01:38:33.740Z,0.73
2024-02-16T01:41:39.545Z,0.68
2024-02-16T01:44:41.299Z,0.68
2024-02-16T01:47:45.069Z,0.90
2024-02-16T01:50:49.129Z,0.57
2024-02-16T01:53:51.375Z,0.90
2024-02-16T01:56:56.240Z,1.30
2024-02-16T01:59:58.978Z,0.90
2024-02-16T02:03:01.149Z,0.65
2024-02-16T02:06:03.215Z,1.00
2024-02-16T02:09:05.214Z,0.70
2024-02-16T02:12:08.989Z,0.90
2024-02-16T02:15:10.764Z,0.77
2024-02-16T02:18:12.806Z,1.05
2024-02-16T02:21:15.545Z,0.73
2024-02-16T02:24:18.990Z,0.90
2024-02-16T02:27:20.752Z,1.00
2024-02-16T02:30:22.705Z,0.60
2024-02-16T02:33:24.570Z,0.57
2024-02-16T02:36:26.403Z,0.47
2024-02-16T02:39:29.662Z,0.80
2024-02-16T02:42:31.533Z,0.70
2024-02-16T02:45:33.333Z,0.57
2024-02-16T02:48:35.144Z,0.93
2024-02-16T02:51:36.996Z,0.70
2024-02-16T02:54:40.090Z,0.70
2024-02-16T02:57:41.815Z,0.60
2024-02-16T03:00:44.849Z,0.70
2024-02-16T03:03:47.863Z,0.98
2024-02-16T03:06:52.658Z,0.73
2024-02-16T03:12:57.557Z,1.10
2024-02-16T03:15:59.389Z,0.70
2024-02-16T03:19:01.448Z,0.70
2024-02-16T03:22:03.681Z,0.80
2024-02-16T03:25:07.083Z,0.80
2024-02-16T03:28:10.653Z,0.70
2024-02-16T03:31:17.753Z,0.80
2024-02-16T03:34:19.655Z,0.77
2024-02-16T03:37:21.389Z,0.68
2024-02-16T03:40:25.773Z,0.70
2024-02-16T03:43:27.464Z,0.77
2024-02-16T03:46:29.160Z,0.77
2024-02-16T03:49:30.975Z,0.90
2024-02-16T03:52:32.945Z,0.63
2024-02-16T03:55:37.594Z,0.60
2024-02-16T03:58:39.306Z,0.95
2024-02-16T04:01:43.044Z,0.55
2024-02-16T04:04:45.067Z,1.00
2024-02-16T04:07:46.914Z,0.80
2024-02-16T04:10:50.148Z,0.90
2024-02-16T04:13:51.919Z,0.65
2024-02-16T04:16:53.623Z,0.73
2024-02-16T04:19:55.488Z,0.73
2024-02-16T04:22:57.201Z,0.82
2024-02-16T04:26:00.186Z,1.00
2024-02-16T04:29:01.924Z,1.00
2024-02-16T04:32:04.117Z,0.95
2024-02-16T04:35:06.530Z,0.77
2024-02-16T04:38:08.445Z,0.90
2024-02-16T04:41:11.434Z,0.85
2024-02-16T04:44:13.886Z,0.70
2024-02-16T04:47:15.966Z,0.77
2024-02-16T04:50:17.710Z,0.98
2024-02-16T04:53:19.413Z,0.80
2024-02-16T04:56:24.103Z,0.95
2024-02-16T04:59:25.878Z,0.90
2024-02-16T05:02:27.625Z,0.80
2024-02-16T05:05:29.497Z,1.23
2024-02-16T05:08:31.928Z,1.13
2024-02-16T05:11:35.193Z,0.93
2024-02-16T05:14:37.336Z,1.23
2024-02-16T05:17:39.078Z,0.80
2024-02-16T05:20:41.670Z,1.08
2024-02-16T05:23:43.403Z,0.95
2024-02-16T05:26:46.621Z,1.00
2024-02-16T05:29:49.166Z,0.80
2024-02-16T05:32:50.996Z,1.17
2024-02-16T05:35:56.439Z,1.45
2024-02-16T05:39:07.208Z,2.28
2024-02-16T05:42:10.389Z,2.17
2024-02-16T05:45:12.426Z,2.05
2024-02-16T05:48:14.604Z,1.75
2024-02-16T05:51:16.452Z,1.80
2024-02-16T05:54:18.264Z,1.95
2024-02-16T05:57:21.360Z,1.60
2024-02-16T06:00:23.173Z,1.17
2024-02-16T06:03:24.952Z,1.48
2024-02-16T06:06:26.787Z,1.40
2024-02-16T06:09:34.786Z,1.48
2024-02-16T06:12:39.455Z,1.00
2024-02-16T06:15:41.321Z,1.27
2024-02-16T06:18:43.455Z,1.50
2024-02-16T06:21:45.455Z,1.67
2024-02-16T06:24:47.192Z,1.45
2024-02-16T06:27:51.088Z,1.30
2024-02-16T06:30:52.817Z,1.67
2024-02-16T06:33:54.705Z,1.40
2024-02-16T06:36:56.464Z,1.20
2024-02-16T06:39:58.242Z,1.10
2024-02-16T06:43:01.273Z,1.20
2024-02-16T06:46:02.938Z,1.35
2024-02-16T06:49:04.886Z,1.50
2024-02-16T06:52:06.978Z,1.50
2024-02-16T06:55:09.307Z,1.40
2024-02-16T06:58:12.329Z,1.67
2024-02-16T07:04:34.986Z,1.27
2024-02-16T07:07:37.249Z,1.40
2024-02-16T07:10:39.182Z,1.50
2024-02-16T07:13:41.750Z,1.38
2024-02-16T07:16:43.841Z,1.35
2024-02-16T07:19:46.986Z,1.40
2024-02-16T07:24:19.517Z,1.50
2024-02-16T07:27:23.047Z,1.30
2024-02-16T07:30:37.062Z,1.83
2024-02-16T07:33:49.917Z,1.63
2024-02-16T07:36:58.400Z,1.40
2024-02-16T07:40:01.678Z,1.42
2024-02-16T07:43:06.798Z,1.30
2024-02-16T07:46:09.422Z,1.50
2024-02-16T07:49:12.442Z,1.63
2024-02-16T07:52:14.390Z,1.58
2024-02-16T07:55:21.716Z,1.38
2024-02-16T07:58:23.593Z,2.00
2024-02-16T08:01:25.483Z,1.60
2024-02-16T08:04:27.255Z,1.70
2024-02-16T08:07:29.164Z,1.27
2024-02-16T08:10:32.329Z,1.70
2024-02-16T08:13:34.095Z,1.48
2024-02-16T08:16:36.327Z,1.30
2024-02-16T08:19:38.958Z,1.48
2024-02-16T08:22:40.755Z,1.25
2024-02-16T08:25:43.872Z,1.50
2024-02-16T08:28:46.441Z,1.52
2024-02-16T08:31:48.997Z,1.48
2024-02-16T08:34:51.431Z,1.48
2024-02-16T08:37:53.409Z,1.95
2024-02-16T08:40:56.466Z,1.52
2024-02-16T08:43:58.431Z,1.77
2024-02-16T08:47:00.165Z,1.83
2024-02-16T08:50:01.954Z,1.55
2024-02-16T08:53:04.051Z,1.05
2024-02-16T08:56:10.319Z,1.30
2024-02-16T08:59:11.983Z,1.42
2024-02-16T09:02:13.794Z,1.25
2024-02-16T09:05:15.749Z,1.77
2024-02-16T09:08:17.536Z,1.38
2024-02-16T09:11:20.962Z,1.42
2024-02-16T09:14:22.653Z,1.50
2024-02-16T09:17:24.625Z,1.20
2024-02-16T09:20:26.722Z,1.48
2024-02-16T09:23:28.815Z,1.38
2024-02-16T09:26:32.914Z,1.73
2024-02-16T09:29:34.781Z,2.30
2024-02-16T09:32:36.564Z,1.58
2024-02-16T09:35:38.591Z,1.85
2024-02-16T09:38:40.322Z,1.40
2024-02-16T09:41:44.584Z,1.80
2024-02-16T09:44:46.736Z,1.55
2024-02-16T09:47:57.248Z,1.90
2024-02-16T09:51:06.277Z,0.52
2024-02-16T09:54:09.045Z,1.83
2024-02-16T09:57:12.353Z,1.27
2024-02-16T10:00:15.212Z,1.70
2024-02-16T10:03:24.795Z,1.33
2024-02-16T10:06:26.540Z,1.58
2024-02-16T10:09:33.797Z,1.52
2024-02-16T10:12:37.020Z,1.52
2024-02-16T10:15:38.866Z,1.55
2024-02-16T10:18:40.770Z,1.20
2024-02-16T10:21:42.734Z,1.73
2024-02-16T10:24:45.260Z,1.75
2024-02-16T10:27:49.067Z,1.60
2024-02-16T10:30:51.062Z,1.80
2024-02-16T10:33:54.532Z,1.50
2024-02-16T10:36:57.937Z,1.55
2024-02-16T10:40:00.511Z,1.70
2024-02-16T10:43:06.748Z,1.58
2024-02-16T10:46:11.685Z,1.80
2024-02-16T10:49:15.193Z,1.42
2024-02-16T10:52:18.624Z,1.60
2024-02-16T10:55:20.651Z,1.73
2024-02-16T10:58:23.797Z,1.67
2024-02-16T11:01:25.666Z,1.45
2024-02-16T11:04:37.738Z,1.40
2024-02-16T11:07:39.607Z,1.40
2024-02-16T11:10:41.498Z,1.48
2024-02-16T11:13:45.685Z,1.30
2024-02-16T11:16:47.841Z,1.60
2024-02-16T11:19:50.561Z,1.58
2024-02-16T11:22:52.390Z,1.10
2024-02-16T11:25:54.190Z,1.45
2024-02-16T11:28:57.281Z,1.30
2024-02-16T11:31:59.706Z,1.38
2024-02-16T11:35:06.692Z,1.38
2024-02-16T11:38:08.569Z,1.65
2024-02-16T11:41:10.337Z,1.25
2024-02-16T11:44:17.523Z,1.20
2024-02-16T11:47:20.371Z,1.48
2024-02-16T11:50:22.272Z,1.70
2024-02-16T11:53:24.463Z,1.45
2024-02-16T11:56:27.137Z,1.20
2024-02-16T11:59:31.764Z,1.85
2024-02-16T12:02:37.459Z,0.77
2024-02-16T12:05:39.531Z,0.70
2024-02-16T12:08:41.256Z,0.88
2024-02-16T12:11:43.115Z,0.70
2024-02-16T12:14:46.305Z,0.85
2024-02-16T12:17:48.123Z,0.70
2024-02-16T12:21:00.722Z,1.17
2024-02-16T12:24:02.473Z,0.65
2024-02-16T12:27:04.722Z,0.73
2024-02-16T12:30:09.483Z,0.90
2024-02-16T12:33:11.438Z,1.13
2024-02-16T12:36:13.397Z,0.85
2024-02-16T12:39:17.068Z,1.05
2024-02-16T12:42:19.079Z,0.75
2024-02-16T12:45:22.371Z,0.80
2024-02-16T12:48:24.357Z,0.70
2024-02-16T12:51:26.601Z,0.90
2024-02-16T12:54:28.396Z,0.60
2024-02-16T12:57:30.539Z,0.90
2024-02-16T13:00:33.897Z,1.10
2024-02-16T13:03:36.445Z,1.00
2024-02-16T13:06:38.734Z,1.00
2024-02-16T13:09:41.213Z,0.60
2024-02-16T13:12:44.507Z,0.70
2024-02-16T13:15:48.488Z,1.20
2024-02-16T13:18:50.438Z,1.10
2024-02-16T13:21:52.609Z,1.00
2024-02-16T13:24:54.345Z,0.93
2024-02-16T13:27:56.104Z,1.00
2024-02-16T13:30:59.798Z,1.10
2024-02-16T13:34:02.262Z,1.08
2024-02-16T13:37:04.534Z,0.95
2024-02-16T13:40:08.704Z,1.10
2024-02-16T13:43:10.869Z,1.08
2024-02-16T13:46:14.032Z,0.95
2024-02-16T13:49:16.226Z,0.80
2024-02-16T13:52:18.006Z,0.60
2024-02-16T13:55:19.903Z,1.10
2024-02-16T13:58:21.671Z,0.80
2024-02-16T14:01:24.983Z,0.82
2024-02-16T14:04:27.761Z,1.00
2024-02-16T14:07:33.892Z,0.63
2024-02-16T14:10:37.522Z,0.60
2024-02-16T14:13:39.237Z,0.88
2024-02-16T14:16:42.566Z,1.35
2024-02-16T14:19:44.568Z,0.30
2024-02-16T14:22:46.291Z,1.00
2024-02-16T14:25:48.338Z,0.80
2024-02-16T14:28:50.111Z,0.77
2024-02-16T14:31:53.179Z,1.10
2024-02-16T14:34:55.197Z,0.70
2024-02-16T14:37:57.193Z,0.77
2024-02-16T14:40:59.293Z,0.80
2024-02-16T14:44:01.847Z,1.10
2024-02-16T14:47:05.177Z,0.70
2024-02-16T14:50:09.094Z,0.60
2024-02-16T14:53:11.080Z,1.35
2024-02-16T14:56:12.799Z,0.60
2024-02-16T14:59:14.707Z,0.88
2024-02-16T15:02:18.043Z,0.75
2024-02-16T15:05:21.782Z,0.40
2024-02-16T15:08:23.646Z,0.82
2024-02-16T15:11:25.434Z,0.77
2024-02-16T15:14:27.190Z,0.60
2024-02-16T15:17:30.376Z,0.90
2024-02-16T15:20:32.799Z,1.05
2024-02-16T15:23:34.532Z,0.90
2024-02-16T15:26:36.380Z,0.95
2024-02-16T15:29:38.251Z,1.10
2024-02-16T15:32:41.540Z,0.75
2024-02-16T15:35:43.457Z,1.10
2024-02-16T15:38:45.229Z,0.90
2024-02-16T15:41:47.835Z,1.25
2024-02-16T15:44:51.818Z,0.90
2024-02-16T15:47:56.684Z,0.95
2024-02-16T15:50:59.985Z,1.05
2024-02-16T15:54:02.477Z,1.30
2024-02-16T15:57:04.605Z,1.00
2024-02-16T16:00:07.749Z,1.02
2024-02-16T16:03:11.036Z,1.08
2024-02-16T16:06:13.023Z,1.27
2024-02-16T16:09:15.024Z,1.27
2024-02-16T16:12:16.836Z,1.27
2024-02-16T16:15:18.743Z,1.00
2024-02-16T16:18:22.143Z,0.93
2024-02-16T16:21:24.689Z,0.90
2024-02-16T16:24:26.947Z,0.98
2024-02-16T16:27:28.832Z,1.10
2024-02-16T16:30:30.925Z,1.23
2024-02-16T16:33:34.615Z,1.58
2024-02-16T16:36:36.823Z,1.08
2024-02-16T16:39:38.618Z,1.00
2024-02-16T16:42:40.550Z,1.25
2024-02-16T16:45:42.628Z,1.27
2024-02-16T16:48:45.958Z,1.40
2024-02-16T16:51:48.408Z,1.27
2024-02-16T16:54:50.276Z,1.55
2024-02-16T16:57:52.025Z,1.23
2024-02-16T17:00:54.944Z,1.70
2024-02-16T17:03:58.234Z,1.48
2024-02-16T17:07:00.656Z,1.35
2024-02-16T17:10:02.599Z,1.42
2024-02-16T17:13:05.143Z,1.58
2024-02-16T17:16:07.662Z,1.40
2024-02-16T17:19:10.953Z,1.83
2024-02-16T17:22:13.010Z,1.63
2024-02-16T17:25:14.837Z,1.80
2024-02-16T17:28:17.809Z,1.70
2024-02-16T17:31:19.588Z,1.50
2024-02-16T17:34:23.590Z,1.35
2024-02-16T17:37:25.560Z,1.70
2024-02-16T17:40:27.457Z,1.60
2024-02-16T17:43:29.832Z,1.88
2024-02-16T17:46:31.645Z,1.70
2024-02-16T17:49:34.972Z,2.55
2024-02-16T17:52:36.749Z,1.65
2024-02-16T17:55:38.804Z,1.17
2024-02-16T17:58:41.235Z,1.30
2024-02-16T18:01:43.799Z,1.05
2024-02-16T18:04:47.400Z,1.10
2024-02-16T18:07:49.422Z,1.42
2024-02-16T18:10:53.109Z,1.38
2024-02-16T18:13:55.580Z,1.48
2024-02-16T18:16:57.317Z,1.48
2024-02-16T18:20:00.842Z,1.80
2024-02-16T18:23:02.871Z,1.60
2024-02-16T18:26:05.899Z,1.50
2024-02-16T18:29:08.222Z,2.17
2024-02-16T18:32:10.214Z,1.67
2024-02-16T18:35:13.484Z,1.25
2024-02-16T18:38:15.180Z,1.35
2024-02-16T18:41:16.850Z,1.70
2024-02-16T18:44:18.724Z,1.48
2024-02-16T18:47:20.466Z,1.73
2024-02-16T18:50:24.180Z,1.85
2024-02-16T18:53:26.003Z,1.48
2024-02-16T18:56:27.985Z,1.40
2024-02-16T18:59:29.738Z,1.90
2024-02-16T19:02:31.923Z,1.52
2024-02-16T19:05:34.997Z,1.80
2024-02-16T19:08:36.745Z,1.73
2024-02-16T19:11:38.414Z,1.90
2024-02-16T19:14:40.624Z,1.80
2024-02-16T19:17:42.700Z,1.90
2024-02-16T19:20:46.037Z,2.03
2024-02-16T19:23:47.917Z,1.70
2024-02-16T19:26:49.636Z,2.08
2024-02-16T19:29:51.380Z,2.30
2024-02-16T19:32:53.297Z,1.80
2024-02-16T19:35:56.470Z,2.50
2024-02-16T19:38:58.493Z,1.63
2024-02-16T19:42:00.802Z,2.75
2024-02-16T19:45:02.653Z,2.20
2024-02-16T19:48:05.020Z,2.03
2024-02-16T19:51:08.571Z,2.28
2024-02-16T19:54:10.486Z,2.03
2024-02-16T19:57:12.404Z,1.95
2024-02-16T20:00:15.234Z,1.92
2024-02-16T20:03:17.371Z,2.00
2024-02-16T20:06:20.774Z,1.85
2024-02-16T20:09:22.906Z,2.13
2024-02-16T20:12:25.785Z,1.55
2024-02-16T20:15:31.226Z,2.33
2024-02-16T20:18:34.470Z,2.22
2024-02-16T20:21:38.064Z,2.00
2024-02-16T20:24:40.091Z,1.58
2024-02-16T20:27:43.221Z,2.25
2024-02-16T20:30:45.447Z,2.42
2024-02-16T20:33:47.753Z,1.70
2024-02-16T20:36:52.498Z,1.70
2024-02-16T20:39:55.775Z,1.50
2024-02-16T20:43:00.497Z,2.03
2024-02-16T20:49:04.512Z,1.92
2024-02-16T20:52:08.374Z,2.05
2024-02-16T20:55:10.966Z,1.90
2024-02-16T20:58:12.816Z,1.80
2024-02-16T21:01:14.605Z,2.20
2024-02-16T21:04:30.320Z,2.22
2024-02-16T21:07:33.607Z,1.65
2024-02-16T21:10:35.456Z,1.90
2024-02-16T21:13:37.282Z,1.65
2024-02-16T21:16:40.270Z,2.10
2024-02-16T21:19:42.135Z,1.98
2024-02-16T21:22:45.382Z,2.50
2024-02-16T21:25:47.113Z,2.33
2024-02-16T21:28:48.940Z,2.60
2024-02-16T21:31:50.860Z,1.80
2024-02-16T21:34:53.560Z,2.10
2024-02-16T21:37:56.708Z,2.28
2024-02-16T21:40:58.586Z,1.75
2024-02-16T21:44:00.786Z,1.67
2024-02-16T21:47:05.204Z,1.90
2024-02-16T21:50:08.245Z,2.03
2024-02-16T21:53:14.549Z,2.30
2024-02-16T21:56:16.343Z,1.80
2024-02-16T21:59:18.113Z,1.83
2024-02-16T22:02:20.037Z,1.92
2024-02-16T22:05:22.026Z,1.60
2024-02-16T22:08:26.542Z,1.80
2024-02-16T22:11:29.270Z,2.20
2024-02-16T22:14:31.024Z,1.83
2024-02-16T22:17:32.819Z,2.05
2024-02-16T22:20:35.599Z,1.98
2024-02-16T22:23:38.812Z,1.90
2024-02-16T22:26:41.833Z,1.92
2024-02-16T22:29:43.707Z,2.20
2024-02-16T22:32:48.190Z,1.63
2024-02-16T22:35:50.134Z,2.25
2024-02-16T22:38:53.475Z,2.15
2024-02-16T22:41:55.373Z,2.20
2024-02-16T22:44:57.135Z,2.28
2024-02-16T22:47:59.795Z,2.22
2024-02-16T22:51:01.817Z,2.35
2024-02-16T22:54:05.253Z,2.13
2024-02-16T22:57:07.050Z,1.95
2024-02-16T23:00:24.522Z,2.13
2024-02-16T23:03:27.549Z,2.17
2024-02-16T23:06:30.633Z,2.47
2024-02-16T23:09:33.812Z,2.17
2024-02-16T23:12:35.752Z,1.58
2024-02-16T23:15:38.625Z,2.00
2024-02-16T23:18:40.471Z,2.00
2024-02-16T23:21:42.360Z,1.52
2024-02-16T23:24:45.589Z,2.28
2024-02-16T23:27:47.394Z,2.00
2024-02-16T23:30:49.297Z,2.10
2024-02-16T23:33:51.139Z,1.95
2024-02-16T23:36:52.980Z,1.88
2024-02-16T23:39:56.108Z,1.90
2024-02-16T23:42:58.039Z,1.80
2024-02-16T23:46:02.424Z,2.20
2024-02-16T23:49:06.903Z,1.88
2024-02-16T23:52:08.731Z,1.80
2024-02-16T23:55:12.242Z,2.15
2024-02-16T23:58:14.947Z,1.38
